createdAt,value
2018-06-07T00:01:04.939Z,1.80
2018-06-07T00:03:33.426Z,1.67
2018-06-07T00:06:01.862Z,1.70
2018-06-07T00:08:30.419Z,1.73
2018-06-07T00:10:58.893Z,1.73
2018-06-07T00:13:27.302Z,1.70
2018-06-07T00:15:55.910Z,1.83
2018-06-07T00:18:25.758Z,2.07
2018-06-07T00:20:54.309Z,2.00
2018-06-07T00:23:24.234Z,1.97
2018-06-07T00:25:52.686Z,1.87
2018-06-07T00:28:21.151Z,1.97
2018-06-07T00:30:50.925Z,1.80
2018-06-07T00:33:19.356Z,2.07
2018-06-07T00:35:48.456Z,1.70
2018-06-07T00:38:18.422Z,1.80
2018-06-07T00:40:46.829Z,1.77
2018-06-07T00:43:16.131Z,1.90
2018-06-07T00:45:44.696Z,1.80
2018-06-07T00:48:13.248Z,1.80
2018-06-07T00:50:43.081Z,1.90
2018-06-07T00:53:11.554Z,1.87
2018-06-07T00:55:40.044Z,2.00
2018-06-07T00:58:08.462Z,1.80
2018-06-07T01:00:36.977Z,2.10
2018-06-07T01:03:07.001Z,1.90
2018-06-07T01:05:35.488Z,1.87
2018-06-07T01:08:04.037Z,2.00
2018-06-07T01:10:33.766Z,1.90
2018-06-07T01:13:03.713Z,1.90
2018-06-07T01:15:32.143Z,1.93
2018-06-07T01:18:01.875Z,1.93
2018-06-07T01:20:31.605Z,1.90
2018-06-07T01:23:00.079Z,1.97
2018-06-07T01:25:28.571Z,2.23
2018-06-07T01:27:58.252Z,2.30
2018-06-07T01:30:33.129Z,2.00
2018-06-07T01:33:32.806Z,1.93
2018-06-07T01:36:01.488Z,1.80
2018-06-07T01:38:41.139Z,2.00
2018-06-07T01:41:09.612Z,1.90
2018-06-07T01:43:38.220Z,2.20
2018-06-07T01:46:08.256Z,2.13
2018-06-07T01:48:38.855Z,2.10
2018-06-07T01:51:08.454Z,1.93
2018-06-07T01:53:36.946Z,2.10
2018-06-07T01:56:05.525Z,1.93
2018-06-07T01:58:34.082Z,2.00
2018-06-07T02:01:02.489Z,2.13
2018-06-07T02:03:31.787Z,2.00
2018-06-07T02:06:00.356Z,2.07
2018-06-07T02:08:30.378Z,1.80
2018-06-07T02:10:58.968Z,1.97
2018-06-07T02:13:27.400Z,2.00
2018-06-07T02:15:55.847Z,2.20
2018-06-07T02:18:24.387Z,1.80
2018-06-07T02:20:52.807Z,1.80
2018-06-07T02:23:21.269Z,1.97
2018-06-07T02:25:49.857Z,1.90
2018-06-07T02:28:18.307Z,1.57
2018-06-07T02:30:46.730Z,1.53
2018-06-07T02:33:16.660Z,1.53
2018-06-07T02:35:45.135Z,1.60
2018-06-07T02:38:13.727Z,1.60
2018-06-07T02:40:43.401Z,1.53
2018-06-07T02:43:11.918Z,1.80
2018-06-07T02:45:41.574Z,1.70
2018-06-07T02:48:11.519Z,1.40
2018-06-07T02:50:39.943Z,1.63
2018-06-07T02:53:08.373Z,2.10
2018-06-07T02:55:36.874Z,1.80
2018-06-07T02:58:06.711Z,1.60
2018-06-07T03:00:35.351Z,1.67
2018-06-07T03:03:04.778Z,1.50
2018-06-07T03:05:33.242Z,1.50
2018-06-07T03:08:03.071Z,1.63
2018-06-07T03:10:31.514Z,1.87
2018-06-07T03:13:01.029Z,1.60
2018-06-07T03:15:30.557Z,1.50
2018-06-07T03:17:58.979Z,1.60
2018-06-07T03:20:27.544Z,1.43
2018-06-07T03:22:55.959Z,1.40
2018-06-07T03:25:25.706Z,1.60
2018-06-07T03:27:54.278Z,1.50
2018-06-07T03:30:23.591Z,1.40
2018-06-07T03:32:52.128Z,1.50
2018-06-07T03:35:20.529Z,1.60
2018-06-07T03:37:50.884Z,1.80
2018-06-07T03:40:20.900Z,1.50
2018-06-07T03:42:51.056Z,1.90
2018-06-07T03:45:20.528Z,1.70
2018-06-07T03:47:49.705Z,1.60
2018-06-07T03:50:19.623Z,1.50
2018-06-07T03:52:49.364Z,1.80
2018-06-07T03:55:18.715Z,1.50
2018-06-07T03:57:48.460Z,1.70
2018-06-07T04:00:17.635Z,1.73
2018-06-07T04:02:47.256Z,1.60
2018-06-07T04:05:17.485Z,1.80
2018-06-07T04:07:47.384Z,1.50
2018-06-07T04:10:15.933Z,1.80
2018-06-07T04:12:44.372Z,1.50
2018-06-07T04:15:13.840Z,1.70
2018-06-07T04:17:42.281Z,1.50
2018-06-07T04:20:12.000Z,1.60
2018-06-07T04:22:42.079Z,1.70
2018-06-07T04:25:10.491Z,1.40
2018-06-07T04:27:40.286Z,1.60
2018-06-07T04:30:08.720Z,1.60
2018-06-07T04:32:38.064Z,1.70
2018-06-07T04:35:07.923Z,1.40
2018-06-07T04:37:37.860Z,1.60
2018-06-07T04:40:06.964Z,1.80
2018-06-07T04:42:35.448Z,1.47
2018-06-07T04:45:03.895Z,1.50
2018-06-07T04:47:34.146Z,1.40
2018-06-07T04:50:02.591Z,1.80
2018-06-07T04:52:32.422Z,1.60
2018-06-07T04:55:00.843Z,1.40
2018-06-07T04:57:29.339Z,1.70
2018-06-07T04:59:59.359Z,1.57
2018-06-07T05:02:29.268Z,1.70
2018-06-07T05:04:57.691Z,1.47
2018-06-07T05:07:26.111Z,1.70
2018-06-07T05:09:54.529Z,1.50
2018-06-07T05:12:23.975Z,2.03
2018-06-07T05:14:53.527Z,1.40
2018-06-07T05:17:23.386Z,1.30
2018-06-07T05:19:51.858Z,1.93
2018-06-07T05:22:20.351Z,1.60
2018-06-07T05:24:49.837Z,1.70
2018-06-07T05:27:18.405Z,1.63
2018-06-07T05:29:48.044Z,1.80
2018-06-07T05:32:16.642Z,1.67
2018-06-07T05:34:46.257Z,2.53
2018-06-07T05:37:14.752Z,1.80
2018-06-07T05:39:43.976Z,1.47
2018-06-07T05:42:13.626Z,1.77
2018-06-07T05:44:42.053Z,1.90
2018-06-07T05:47:11.807Z,1.60
2018-06-07T05:49:41.145Z,1.50
2018-06-07T05:52:10.931Z,1.40
2018-06-07T05:54:39.402Z,1.57
2018-06-07T05:57:08.862Z,1.73
2018-06-07T05:59:38.684Z,1.43
2018-06-07T06:02:07.114Z,1.70
2018-06-07T06:04:36.211Z,1.70
2018-06-07T06:07:04.645Z,1.73
2018-06-07T06:09:33.300Z,1.60
2018-06-07T06:12:02.773Z,1.63
2018-06-07T06:14:32.573Z,1.40
2018-06-07T06:17:01.033Z,1.30
2018-06-07T06:19:30.831Z,1.40
2018-06-07T06:21:59.381Z,1.50
2018-06-07T06:24:28.526Z,1.43
2018-06-07T06:26:58.467Z,1.73
2018-06-07T06:29:26.950Z,1.60
2018-06-07T06:31:56.522Z,1.70
2018-06-07T06:34:24.904Z,1.53
2018-06-07T06:38:23.439Z,1.83
2018-06-07T06:40:53.248Z,1.50
2018-06-07T06:43:22.654Z,1.60
2018-06-07T06:45:51.171Z,1.90
2018-06-07T06:48:21.351Z,1.60
2018-06-07T06:50:50.650Z,1.53
2018-06-07T06:53:19.068Z,1.70
2018-06-07T06:55:47.491Z,1.60
2018-06-07T06:58:16.005Z,1.70
2018-06-07T07:00:46.414Z,1.63
2018-06-07T07:03:14.896Z,1.70
2018-06-07T07:05:43.351Z,1.33
2018-06-07T07:08:11.769Z,1.60
2018-06-07T07:10:41.620Z,1.70
2018-06-07T07:13:10.098Z,1.50
2018-06-07T07:15:38.558Z,1.80
2018-06-07T07:18:08.438Z,1.80
2018-06-07T07:20:36.874Z,1.53
2018-06-07T07:23:05.487Z,1.80
2018-06-07T07:25:34.703Z,1.83
2018-06-07T07:28:03.162Z,1.63
2018-06-07T07:30:31.731Z,2.00
2018-06-07T07:33:01.462Z,1.80
2018-06-07T07:35:30.045Z,1.67
2018-06-07T07:37:58.494Z,1.60
2018-06-07T07:40:26.972Z,1.93
2018-06-07T07:42:56.224Z,1.60
2018-06-07T07:45:26.112Z,1.70
2018-06-07T07:47:54.507Z,1.83
2018-06-07T07:50:24.243Z,1.70
2018-06-07T07:52:53.750Z,2.10
2018-06-07T07:55:22.257Z,1.87
2018-06-07T07:57:50.706Z,1.50
2018-06-07T08:00:20.641Z,1.70
2018-06-07T08:02:50.221Z,1.90
2018-06-07T08:05:19.363Z,1.77
2018-06-07T08:07:48.731Z,2.10
2018-06-07T08:10:18.631Z,2.00
2018-06-07T08:12:48.084Z,2.00
2018-06-07T08:15:16.541Z,2.37
2018-06-07T08:17:45.064Z,2.80
2018-06-07T08:20:13.521Z,2.37
2018-06-07T08:22:41.908Z,2.40
2018-06-07T08:25:11.874Z,2.20
2018-06-07T08:27:40.468Z,2.33
2018-06-07T08:30:08.916Z,2.63
2018-06-07T08:32:38.361Z,2.70
2018-06-07T08:35:06.798Z,2.60
2018-06-07T08:37:35.214Z,3.00
2018-06-07T08:40:04.773Z,3.17
2018-06-07T08:42:33.283Z,3.00
2018-06-07T08:45:01.722Z,3.17
2018-06-07T08:47:30.152Z,3.23
2018-06-07T08:49:58.566Z,3.33
2018-06-07T08:52:27.089Z,3.27
2018-06-07T08:54:57.609Z,3.13
2018-06-07T08:57:26.360Z,3.20
2018-06-07T08:59:55.081Z,3.57
2018-06-07T09:02:23.499Z,3.23
2018-06-07T09:04:51.962Z,3.20
2018-06-07T09:07:20.407Z,3.47
2018-06-07T09:09:48.626Z,3.30
2018-06-07T09:12:17.115Z,3.20
2018-06-07T09:14:45.644Z,3.60
2018-06-07T09:17:14.153Z,3.30
2018-06-07T09:19:42.613Z,3.63
2018-06-07T09:22:11.186Z,3.73
2018-06-07T09:24:39.622Z,3.53
2018-06-07T09:27:08.079Z,3.40
2018-06-07T09:29:36.494Z,3.83
2018-06-07T09:32:06.200Z,3.43
2018-06-07T09:34:35.528Z,3.60
2018-06-07T09:37:05.199Z,3.43
2018-06-07T09:39:34.984Z,3.90
2018-06-07T09:42:04.936Z,3.67
2018-06-07T09:44:34.941Z,3.63
2018-06-07T09:47:03.392Z,3.70
2018-06-07T09:49:31.886Z,3.80
2018-06-07T09:52:01.772Z,3.40
2018-06-07T09:54:30.271Z,3.47
2018-06-07T09:56:58.723Z,3.97
2018-06-07T09:59:27.184Z,3.43
2018-06-07T10:01:55.722Z,3.57
2018-06-07T10:04:24.148Z,3.67
2018-06-07T10:06:52.592Z,3.73
2018-06-07T10:09:21.018Z,3.70
2018-06-07T10:11:49.529Z,4.07
2018-06-07T10:14:17.949Z,3.47
2018-06-07T10:16:46.458Z,3.27
2018-06-07T10:19:14.661Z,3.87
2018-06-07T10:21:43.072Z,3.57
2018-06-07T10:24:11.552Z,3.50
2018-06-07T10:26:40.068Z,3.60
2018-06-07T10:29:08.527Z,3.67
2018-06-07T10:31:37.063Z,3.80
2018-06-07T10:34:06.422Z,3.70
2018-06-07T10:36:34.970Z,3.77
2018-06-07T10:39:04.433Z,3.90
2018-06-07T10:41:32.966Z,3.30
2018-06-07T10:44:01.427Z,3.50
2018-06-07T10:46:29.926Z,3.10
2018-06-07T10:48:58.534Z,3.43
2018-06-07T10:51:26.721Z,3.50
2018-06-07T10:53:55.288Z,2.90
2018-06-07T10:56:23.840Z,3.20
2018-06-07T10:58:52.301Z,3.10
2018-06-07T11:01:20.694Z,2.90
2018-06-07T11:03:49.127Z,3.03
2018-06-07T11:06:17.573Z,2.90
2018-06-07T11:08:46.386Z,2.90
2018-06-07T11:11:14.968Z,3.00
2018-06-07T11:13:43.416Z,2.93
2018-06-07T11:16:11.886Z,2.90
2018-06-07T11:18:40.302Z,3.10
2018-06-07T11:21:08.836Z,3.30
2018-06-07T11:23:37.360Z,2.80
2018-06-07T11:26:05.841Z,3.33
2018-06-07T11:28:34.649Z,2.93
2018-06-07T11:31:03.181Z,3.27
2018-06-07T11:33:31.723Z,3.13
2018-06-07T11:36:00.163Z,3.30
2018-06-07T11:38:28.701Z,3.33
2018-06-07T11:40:57.224Z,3.53
2018-06-07T11:43:26.381Z,3.20
2018-06-07T11:45:56.058Z,3.70
2018-06-07T11:48:25.386Z,3.50
2018-06-07T11:50:55.883Z,3.47
2018-06-07T11:53:25.626Z,3.13
2018-06-07T11:55:55.148Z,3.20
2018-06-07T11:58:24.493Z,3.43
2018-06-07T12:00:54.720Z,3.50
2018-06-07T12:03:23.152Z,3.67
2018-06-07T12:05:51.622Z,3.20
2018-06-07T12:08:20.010Z,3.53
2018-06-07T12:10:50.490Z,3.50
2018-06-07T12:13:18.959Z,3.70
2018-06-07T12:15:47.413Z,3.33
2018-06-07T12:18:15.879Z,3.37
2018-06-07T12:20:46.257Z,3.27
2018-06-07T12:23:14.690Z,3.40
2018-06-07T12:25:44.481Z,3.17
2018-06-07T12:28:14.268Z,3.67
2018-06-07T12:30:44.029Z,3.80
2018-06-07T12:33:13.738Z,3.23
2018-06-07T12:35:43.143Z,3.20
2018-06-07T12:38:13.101Z,3.90
2018-06-07T12:40:43.549Z,4.13
2018-06-07T12:43:13.139Z,3.50
2018-06-07T12:45:42.373Z,3.77
2018-06-07T12:48:12.251Z,3.60
2018-06-07T12:50:41.760Z,3.97
2018-06-07T12:53:10.465Z,4.33
2018-06-07T12:55:39.008Z,4.00
2018-06-07T12:58:08.731Z,4.20
2018-06-07T13:00:38.170Z,3.80
2018-06-07T13:03:07.709Z,4.10
2018-06-07T13:05:38.119Z,4.53
2018-06-07T13:08:06.612Z,4.37
2018-06-07T13:10:36.412Z,4.20
2018-06-07T13:13:05.860Z,4.13
2018-06-07T13:15:36.511Z,4.13
2018-06-07T13:18:05.492Z,3.97
2018-06-07T13:20:35.915Z,4.30
2018-06-07T13:23:06.200Z,4.53
2018-06-07T13:25:35.549Z,4.80
2018-06-07T13:28:05.264Z,4.87
2018-06-07T13:30:34.187Z,5.00
2018-06-07T13:33:02.679Z,5.20
2018-06-07T13:35:31.242Z,5.00
2018-06-07T13:37:59.701Z,4.73
2018-06-07T13:40:28.238Z,4.60
2018-06-07T13:42:56.978Z,4.80
2018-06-07T13:45:25.405Z,5.33
2018-06-07T13:47:53.874Z,5.10
2018-06-07T13:50:22.211Z,4.90
2018-06-07T13:52:52.010Z,4.60
2018-06-07T13:55:20.445Z,4.17
2018-06-07T13:57:49.068Z,4.90
2018-06-07T14:00:17.551Z,4.97
2018-06-07T14:02:47.977Z,4.67
2018-06-07T14:05:17.671Z,5.00
2018-06-07T14:07:47.007Z,4.90
2018-06-07T14:10:15.474Z,4.77
2018-06-07T14:12:43.965Z,4.80
2018-06-07T14:15:12.484Z,4.10
2018-06-07T14:17:41.008Z,4.00
2018-06-07T14:20:09.532Z,4.13
2018-06-07T14:22:38.114Z,4.73
2018-06-07T14:25:07.897Z,5.30
2018-06-07T14:27:37.504Z,4.80
2018-06-07T14:30:07.305Z,4.40
2018-06-07T14:32:37.536Z,4.37
2018-06-07T14:35:05.999Z,4.63
2018-06-07T14:37:35.335Z,4.70
2018-06-07T14:40:04.941Z,5.03
2018-06-07T14:42:34.972Z,4.63
2018-06-07T14:45:03.452Z,5.30
2018-06-07T14:47:33.045Z,4.70
2018-06-07T14:50:02.445Z,5.07
2018-06-07T14:52:30.991Z,5.20
2018-06-07T14:54:59.407Z,5.40
2018-06-07T14:57:28.830Z,5.17
2018-06-07T14:59:57.265Z,4.80
2018-06-07T15:02:25.715Z,4.70
2018-06-07T15:04:54.175Z,4.97
2018-06-07T15:07:22.401Z,4.50
2018-06-07T15:09:52.129Z,4.77
2018-06-07T15:12:21.658Z,4.40
2018-06-07T15:14:50.953Z,4.23
2018-06-07T15:17:19.516Z,4.33
2018-06-07T15:19:48.003Z,4.27
2018-06-07T15:22:16.476Z,3.90
2018-06-07T15:24:46.187Z,4.20
2018-06-07T15:27:14.635Z,4.10
2018-06-07T15:29:43.052Z,4.13
2018-06-07T15:32:11.612Z,4.40
2018-06-07T15:34:41.382Z,4.20
2018-06-07T15:37:11.572Z,3.87
2018-06-07T15:39:40.175Z,4.03
2018-06-07T15:42:09.514Z,4.00
2018-06-07T15:45:15.533Z,4.07
2018-06-07T15:47:44.064Z,3.97
2018-06-07T15:50:12.520Z,3.73
2018-06-07T15:52:40.944Z,4.17
2018-06-07T15:55:09.531Z,3.90
2018-06-07T15:57:38.153Z,4.00
2018-06-07T16:00:06.627Z,4.10
2018-06-07T16:02:34.953Z,4.43
2018-06-07T16:05:03.558Z,3.83
2018-06-07T16:07:32.047Z,5.00
2018-06-07T16:10:00.531Z,4.40
2018-06-07T16:12:29.084Z,3.77
2018-06-07T16:14:57.499Z,3.80
2018-06-07T16:17:27.148Z,4.13
2018-06-07T16:19:55.654Z,4.00
2018-06-07T16:22:25.693Z,3.70
2018-06-07T16:24:54.200Z,3.70
2018-06-07T16:27:22.777Z,3.83
2018-06-07T16:29:53.931Z,3.90
2018-06-07T16:32:22.614Z,3.70
2018-06-07T16:34:51.128Z,3.87
2018-06-07T16:37:21.120Z,3.63
2018-06-07T16:39:51.593Z,3.17
2018-06-07T16:42:22.143Z,3.10
2018-06-07T16:44:51.885Z,3.07
2018-06-07T16:47:20.459Z,3.30
2018-06-07T16:49:50.340Z,2.93
2018-06-07T16:52:18.856Z,3.03
2018-06-07T16:54:48.785Z,3.40
2018-06-07T16:57:17.513Z,3.10
2018-06-07T16:59:46.040Z,3.20
2018-06-07T17:02:14.731Z,3.00
2018-06-07T17:04:43.270Z,2.80
2018-06-07T17:07:11.886Z,2.80
2018-06-07T17:09:40.382Z,2.97
2018-06-07T17:12:09.033Z,2.50
2018-06-07T17:14:37.685Z,2.60
2018-06-07T17:17:06.241Z,2.67
2018-06-07T17:19:34.873Z,2.80
2018-06-07T17:22:03.357Z,2.50
2018-06-07T17:24:31.783Z,2.77
2018-06-07T17:27:00.240Z,2.90
2018-06-07T17:29:28.754Z,2.70
2018-06-07T17:31:57.303Z,2.70
2018-06-07T17:34:25.789Z,2.50
2018-06-07T17:36:54.274Z,2.97
2018-06-07T17:39:22.750Z,2.47
2018-06-07T17:41:51.325Z,2.80
2018-06-07T17:44:19.857Z,2.50
2018-06-07T17:46:49.627Z,2.67
2018-06-07T17:49:18.060Z,2.60
2018-06-07T17:51:48.138Z,2.60
2018-06-07T17:54:17.665Z,2.70
2018-06-07T17:56:47.448Z,2.60
2018-06-07T17:59:16.940Z,2.63
2018-06-07T18:01:45.476Z,2.60
2018-06-07T18:04:13.905Z,2.77
2018-06-07T18:06:42.377Z,2.87
2018-06-07T18:09:10.835Z,2.90
2018-06-07T18:11:39.407Z,3.00
2018-06-07T18:14:07.835Z,2.93
2018-06-07T18:16:36.400Z,2.70
2018-06-07T18:19:05.078Z,3.07
2018-06-07T18:21:33.483Z,2.50
2018-06-07T18:24:02.018Z,2.67
2018-06-07T18:26:30.460Z,2.60
2018-06-07T18:28:58.967Z,2.90
2018-06-07T18:31:27.447Z,2.80
2018-06-07T18:33:56.003Z,2.67
2018-06-07T18:36:24.542Z,2.70
2018-06-07T18:38:54.429Z,2.60
2018-06-07T18:41:22.905Z,2.80
2018-06-07T18:43:51.326Z,2.70
2018-06-07T18:46:20.804Z,2.77
2018-06-07T18:48:49.342Z,2.50
2018-06-07T18:51:18.654Z,2.63
2018-06-07T18:56:38.394Z,2.80
2018-06-07T18:59:06.869Z,2.83
2018-06-07T19:01:36.872Z,2.47
2018-06-07T19:04:06.325Z,2.97
2018-06-07T19:06:34.715Z,2.97
2018-06-07T19:09:09.743Z,2.50
2018-06-07T19:11:38.226Z,2.73
2018-06-07T19:14:12.226Z,2.83
2018-06-07T19:16:40.750Z,2.83
2018-06-07T19:19:14.786Z,2.60
2018-06-07T19:21:44.317Z,2.73
2018-06-07T19:24:12.852Z,2.80
2018-06-07T19:26:46.664Z,2.70
2018-06-07T19:29:16.433Z,2.60
2018-06-07T19:31:50.265Z,3.00
2018-06-07T19:34:25.106Z,2.83
2018-06-07T19:36:53.624Z,2.70
2018-06-07T19:39:27.607Z,2.70
2018-06-07T19:42:01.595Z,2.83
2018-06-07T19:44:30.038Z,2.77
2018-06-07T19:46:58.480Z,2.90
2018-06-07T19:49:26.894Z,3.10
2018-06-07T19:51:55.351Z,2.70
2018-06-07T19:54:23.775Z,2.80
2018-06-07T19:56:52.219Z,2.67
2018-06-07T19:59:20.705Z,2.70
2018-06-07T20:01:50.011Z,2.80
2018-06-07T20:04:18.483Z,2.97
2018-06-07T20:06:47.827Z,2.50
2018-06-07T20:09:16.193Z,2.83
2018-06-07T20:11:44.613Z,2.50
2018-06-07T20:14:28.834Z,2.80
2018-06-07T20:16:57.477Z,2.87
2018-06-07T20:19:27.446Z,2.70
2018-06-07T20:21:55.872Z,2.80
2018-06-07T20:24:25.978Z,3.10
2018-06-07T20:26:55.657Z,2.87
2018-06-07T20:29:24.215Z,2.80
2018-06-07T20:31:52.743Z,2.50
2018-06-07T20:34:21.220Z,2.50
2018-06-07T20:36:50.701Z,3.20
2018-06-07T20:39:19.157Z,2.53
2018-06-07T20:41:47.663Z,3.03
2018-06-07T20:44:16.168Z,2.63
2018-06-07T20:46:46.012Z,2.70
2018-06-07T20:49:15.889Z,3.20
2018-06-07T20:51:45.830Z,2.90
2018-06-07T20:54:14.279Z,3.10
2018-06-07T20:56:42.841Z,2.80
2018-06-07T20:59:11.359Z,3.00
2018-06-07T21:01:39.768Z,3.07
2018-06-07T21:04:08.245Z,2.77
2018-06-07T21:06:36.613Z,2.63
2018-06-07T21:09:07.868Z,2.70
2018-06-07T21:11:36.377Z,2.40
2018-06-07T21:14:05.283Z,2.37
2018-06-07T21:16:33.771Z,2.00
2018-06-07T21:19:02.206Z,2.00
2018-06-07T21:21:30.874Z,1.90
2018-06-07T21:23:59.346Z,1.97
2018-06-07T21:26:29.152Z,1.80
2018-06-07T21:28:58.759Z,1.70
2018-06-07T21:31:27.219Z,1.53
2018-06-07T21:33:55.609Z,1.57
2018-06-07T21:36:24.083Z,1.40
2018-06-07T21:38:52.498Z,1.43
2018-06-07T21:41:22.435Z,1.50
2018-06-07T21:43:52.275Z,1.40
2018-06-07T21:46:20.711Z,1.33
2018-06-07T21:48:49.070Z,1.37
2018-06-07T21:51:17.526Z,1.20
2018-06-07T21:53:45.906Z,1.40
2018-06-07T21:56:14.267Z,1.20
2018-06-07T21:58:42.685Z,1.57
2018-06-07T22:01:11.037Z,1.30
2018-06-07T22:03:39.398Z,1.37
2018-06-07T22:06:08.792Z,1.20
2018-06-07T22:08:37.249Z,1.30
2018-06-07T22:11:05.715Z,1.40
2018-06-07T22:13:34.121Z,1.40
2018-06-07T22:16:02.520Z,1.30
2018-06-07T22:18:32.088Z,1.50
2018-06-07T22:21:01.546Z,1.40
2018-06-07T22:23:30.805Z,1.27
2018-06-07T22:25:59.841Z,1.20
2018-06-07T22:28:28.971Z,1.30
2018-06-07T22:30:57.331Z,1.20
2018-06-07T22:33:26.736Z,1.20
2018-06-07T22:35:56.137Z,1.23
2018-06-07T22:38:24.570Z,1.20
2018-06-07T22:40:53.086Z,1.30
2018-06-07T22:43:21.430Z,1.30
2018-06-07T22:45:50.663Z,1.20
2018-06-07T22:48:20.267Z,1.20
2018-06-07T22:50:48.717Z,1.30
2018-06-07T22:53:17.899Z,1.50
2018-06-07T22:55:47.446Z,1.10
2018-06-07T22:58:15.832Z,1.37
2018-06-07T23:00:44.323Z,1.10
2018-06-07T23:03:12.894Z,1.10
2018-06-07T23:05:42.620Z,1.30
2018-06-07T23:08:11.096Z,1.13
2018-06-07T23:10:39.657Z,1.20
2018-06-07T23:13:08.210Z,1.20
2018-06-07T23:15:37.759Z,1.23
2018-06-07T23:18:06.193Z,1.00
2018-06-07T23:20:35.477Z,1.20
2018-06-07T23:23:03.939Z,1.30
2018-06-07T23:25:32.381Z,1.10
2018-06-07T23:28:01.925Z,1.10
2018-06-07T23:30:31.571Z,1.00
2018-06-07T23:32:59.992Z,1.10
2018-06-07T23:35:29.499Z,1.10
2018-06-07T23:37:58.359Z,1.17
2018-06-07T23:40:26.882Z,1.10
2018-06-07T23:42:55.348Z,1.10
2018-06-07T23:45:23.787Z,1.07
2018-06-07T23:47:53.337Z,1.10
2018-06-07T23:51:51.274Z,1.10
2018-06-07T23:54:19.729Z,1.30
2018-06-07T23:56:49.317Z,1.10
2018-06-07T23:59:19.320Z,1.17
